Time;durP1;ratioP1;P1;durP2;ratioP2;P2;SDS_P1;SDS_P2;PMS_P1;PMS_P2;Temp;Humidity;BMP_temperature;BMP_pressure;BME280_temperature;BME280_humidity;BME280_pressure;Samples;Min_cycle;Max_cycle;Signal;HPM_P1;HPM_P2
2022/01/10 00:01:06;;;;;;;47.53;25.15;;;;;;;-1.70;100.00;100903.13;5261267;28;20090;-72
2022/01/10 00:03:38;;;;;;;50.83;23.88;;;;;;;-1.72;100.00;100909.31;5268913;28;20043;-71
2022/01/10 00:06:09;;;;;;;57.22;25.42;;;;;;;-1.71;100.00;100911.84;5264277;28;20454;-72
2022/01/10 00:08:40;;;;;;;55.17;26.15;;;;;;;-1.70;100.00;100931.03;5256910;28;20111;-72
2022/01/10 00:11:11;;;;;;;51.17;24.20;;;;;;;-1.69;100.00;100933.59;5260074;28;20036;-71
2022/01/10 00:13:43;;;;;;;54.60;26.60;;;;;;;-1.74;100.00;100937.25;5260824;28;20147;-71
2022/01/10 00:16:14;;;;;;;52.10;25.50;;;;;;;-1.69;100.00;100943.22;5257448;28;20021;-71
2022/01/10 00:18:45;;;;;;;51.42;25.13;;;;;;;-1.64;100.00;100936.13;5257868;28;20020;-72
2022/01/10 00:21:17;;;;;;;60.90;26.80;;;;;;;-1.75;100.00;100945.97;5259013;28;20037;-72
2022/01/10 00:23:48;;;;;;;56.70;27.15;;;;;;;-1.80;100.00;100944.34;5258517;28;20468;-72
2022/01/10 00:26:19;;;;;;;59.92;26.67;;;;;;;-1.83;100.00;100947.00;5258873;28;20100;-71
2022/01/10 00:28:50;;;;;;;56.47;27.42;;;;;;;-1.83;100.00;100944.41;5262155;28;20032;-72
2022/01/10 00:31:22;;;;;;;55.45;26.92;;;;;;;-1.83;100.00;100940.94;5261396;28;20067;-72
2022/01/10 00:33:53;;;;;;;57.85;26.67;;;;;;;-1.88;100.00;100938.44;5267601;28;20434;-72
2022/01/10 00:36:25;;;;;;;61.20;26.70;;;;;;;-1.77;100.00;100944.25;5262289;28;20407;-72
2022/01/10 00:38:57;;;;;;;62.28;28.10;;;;;;;-1.88;100.00;100942.78;5268784;28;20363;-72
2022/01/10 00:41:28;;;;;;;65.30;27.92;;;;;;;-1.90;100.00;100948.03;5264430;28;20044;-72
2022/01/10 00:44:01;;;;;;;50.75;26.38;;;;;;;-1.74;100.00;100953.78;5257778;28;20458;-72
2022/01/10 00:46:32;;;;;;;64.28;27.42;;;;;;;-1.84;100.00;100954.88;5263130;28;20024;-72
2022/01/10 00:49:04;;;;;;;57.95;27.52;;;;;;;-1.85;100.00;100956.66;5266810;28;20035;-72
2022/01/10 00:51:35;;;;;;;62.40;28.85;;;;;;;-1.92;100.00;100968.16;5265226;28;20036;-72
2022/01/10 00:54:06;;;;;;;57.90;27.27;;;;;;;-1.83;100.00;100975.78;5264522;28;20382;-72
2022/01/10 00:56:37;;;;;;;61.70;28.42;;;;;;;-1.87;100.00;100975.91;5265419;28;20537;-72
2022/01/10 00:59:09;;;;;;;57.92;29.45;;;;;;;-1.72;100.00;100977.31;5275346;28;20036;-71
2022/01/10 01:01:41;;;;;;;59.25;29.23;;;;;;;-1.54;100.00;100984.69;5261605;28;20036;-72
2022/01/10 01:04:14;;;;;;;67.10;29.63;;;;;;;-1.48;100.00;100988.91;5265854;28;20035;-72
2022/01/10 01:06:47;;;;;;;62.85;28.60;;;;;;;-1.55;100.00;100993.47;5265597;28;20025;-72
2022/01/10 01:09:24;;;;;;;51.70;27.02;;;;;;;-1.50;100.00;100991.56;5259455;28;20032;-72
2022/01/10 01:12:14;;;;;;;58.85;27.55;;;;;;;-1.55;100.00;101003.94;5261117;28;20393;-72
2022/01/10 01:14:52;;;;;;;51.05;25.95;;;;;;;-1.61;100.00;101004.94;5264549;28;20536;-72
2022/01/10 01:25:25;;;;;;;52.17;24.55;;;;;;;-1.64;100.00;101038.16;5268211;28;20488;-73
2022/01/10 01:27:56;;;;;;;54.50;26.50;;;;;;;-1.69;100.00;101037.38;5256641;28;20071;-72
2022/01/10 01:30:27;;;;;;;53.67;25.58;;;;;;;-1.69;100.00;101034.75;5262019;28;20047;-72
2022/01/10 01:32:59;;;;;;;53.15;26.65;;;;;;;-1.75;100.00;101040.13;5266645;28;20063;-70
2022/01/10 01:35:32;;;;;;;50.50;24.70;;;;;;;-1.77;100.00;101043.63;5262385;28;20036;-70
2022/01/10 01:38:03;;;;;;;52.50;25.70;;;;;;;-1.74;100.00;101050.56;5263968;28;20115;-70
2022/01/10 01:40:41;;;;;;;52.92;25.08;;;;;;;-1.72;100.00;101045.31;5264174;28;20417;-70
2022/01/10 01:43:12;;;;;;;50.90;25.30;;;;;;;-1.73;100.00;101052.28;5262342;28;20046;-70
2022/01/10 01:45:47;;;;;;;58.65;26.05;;;;;;;-1.78;100.00;101067.22;5269948;28;20028;-71
2022/01/10 01:48:18;;;;;;;54.50;25.33;;;;;;;-1.82;100.00;101073.44;5261344;28;20035;-71
2022/01/10 01:50:49;;;;;;;54.85;24.40;;;;;;;-1.80;100.00;101080.34;5267284;28;20383;-71
2022/01/10 01:53:20;;;;;;;53.70;25.30;;;;;;;-1.75;100.00;101082.00;5267859;28;20029;-70
2022/01/10 01:55:52;;;;;;;50.90;24.98;;;;;;;-1.83;100.00;101071.69;5271965;28;20186;-71
2022/01/10 01:58:24;;;;;;;49.47;25.23;;;;;;;-1.79;100.00;101089.88;5263784;28;20024;-71
2022/01/10 02:00:56;;;;;;;51.80;24.38;;;;;;;-1.86;100.00;101085.72;5268516;28;20497;-71
2022/01/10 02:03:29;;;;;;;50.08;24.52;;;;;;;-1.83;100.00;101092.63;5272881;28;20037;-71
2022/01/10 02:06:00;;;;;;;53.80;24.58;;;;;;;-1.82;100.00;101095.19;5270205;28;20032;-71
2022/01/10 02:08:33;;;;;;;48.97;24.70;;;;;;;-1.79;100.00;101091.66;5263511;28;20043;-71
2022/01/10 02:11:10;;;;;;;51.20;25.60;;;;;;;-1.85;100.00;101110.09;5259243;28;20111;-71
2022/01/10 02:13:43;;;;;;;51.28;25.00;;;;;;;-1.89;100.00;101104.06;5263538;28;20053;-70
2022/01/10 02:16:22;;;;;;;49.83;25.42;;;;;;;-1.86;100.00;101100.50;5260603;28;20037;-71
2022/01/10 02:18:53;;;;;;;54.95;25.00;;;;;;;-1.91;100.00;101097.16;5263763;28;20029;-71
2022/01/10 02:21:24;;;;;;;60.67;25.08;;;;;;;-1.91;100.00;101102.38;5264081;28;20513;-71
2022/01/10 02:23:57;;;;;;;49.70;24.27;;;;;;;-1.89;100.00;101105.81;5262659;28;20085;-71
2022/01/10 02:26:30;;;;;;;51.65;25.15;;;;;;;-1.91;100.00;101107.63;5264717;28;20033;-71
2022/01/10 02:29:01;;;;;;;49.13;24.63;;;;;;;-1.86;100.00;101111.84;5259328;28;20489;-71
2022/01/10 02:31:39;;;;;;;52.35;24.60;;;;;;;-1.94;100.00;101111.13;5257166;28;20036;-71
2022/01/10 02:34:15;;;;;;;51.67;25.13;;;;;;;-1.90;100.00;101120.63;5265148;28;20028;-71
2022/01/10 02:36:47;;;;;;;53.35;26.63;;;;;;;-1.85;100.00;101126.63;5265936;28;20033;-71
2022/01/10 02:39:20;;;;;;;58.35;27.48;;;;;;;-1.84;100.00;101123.16;5259300;28;20259;-71
2022/01/10 02:41:51;;;;;;;52.05;25.23;;;;;;;-1.81;100.00;101130.91;5265291;28;20070;-71
2022/01/10 02:44:22;;;;;;;54.38;25.70;;;;;;;-1.89;100.00;101145.91;5263705;28;20463;-71
2022/01/10 02:46:54;;;;;;;49.15;26.45;;;;;;;-1.79;100.00;101147.44;5260744;28;20033;-71
2022/01/10 02:49:28;;;;;;;53.33;27.50;;;;;;;-1.77;100.00;101153.47;5262453;28;20282;-71
2022/01/10 02:52:00;;;;;;;55.85;28.02;;;;;;;-1.71;100.00;101157.72;5260232;28;20039;-71
2022/01/10 02:54:32;;;;;;;59.38;27.65;;;;;;;-1.66;100.00;101168.13;5265336;28;20056;-71
2022/01/10 02:57:03;;;;;;;61.60;28.13;;;;;;;-1.67;100.00;101162.03;5266853;28;20190;-71
2022/01/10 02:59:37;;;;;;;59.63;29.67;;;;;;;-1.51;100.00;101175.66;5260136;28;20063;-71
2022/01/10 03:02:10;;;;;;;70.70;32.05;;;;;;;-1.49;100.00;101181.72;5257769;28;20402;-71
2022/01/10 03:04:41;;;;;;;66.88;30.83;;;;;;;-1.46;100.00;101179.03;5264933;28;20512;-71
2022/01/10 03:07:17;;;;;;;75.10;32.88;;;;;;;-1.44;100.00;101189.44;5259825;28;20029;-71
2022/01/10 03:09:49;;;;;;;68.88;31.10;;;;;;;-1.45;100.00;101191.22;5269666;28;20040;-71
2022/01/10 03:12:21;;;;;;;73.70;31.95;;;;;;;-1.44;100.00;101192.94;5262145;28;20025;-71
2022/01/10 03:14:52;;;;;;;65.18;31.42;;;;;;;-1.43;100.00;101199.03;5260997;28;20391;-71
2022/01/10 03:17:23;;;;;;;62.72;29.83;;;;;;;-1.41;100.00;101197.25;5262464;28;20348;-71
2022/01/10 03:19:55;;;;;;;58.13;30.77;;;;;;;-1.41;100.00;101203.34;5261615;28;20060;-71
2022/01/10 03:22:26;;;;;;;62.50;30.05;;;;;;;-1.42;100.00;101213.81;5261319;28;20374;-71
2022/01/10 03:24:59;;;;;;;65.32;30.60;;;;;;;-1.44;100.00;101205.16;5263599;28;20025;-71
2022/01/10 03:27:30;;;;;;;61.22;29.45;;;;;;;-1.41;100.00;101211.19;5268807;28;20039;-71
2022/01/10 03:30:03;;;;;;;58.42;28.27;;;;;;;-1.40;100.00;101226.00;5265743;28;20025;-71
2022/01/10 03:32:34;;;;;;;57.33;28.65;;;;;;;-1.44;100.00;101218.22;5263414;28;20025;-71
2022/01/10 03:35:06;;;;;;;55.47;30.05;;;;;;;-1.40;100.00;101225.13;5266362;28;20062;-71
2022/01/10 03:37:37;;;;;;;56.50;28.95;;;;;;;-1.42;100.00;101227.81;5270009;28;20453;-71
2022/01/10 03:40:09;;;;;;;66.13;28.60;;;;;;;-1.53;100.00;101242.84;5267113;28;20029;-71
2022/01/10 03:42:40;;;;;;;60.95;28.98;;;;;;;-1.49;100.00;101244.50;5272500;28;20558;-71
2022/01/10 03:45:12;;;;;;;54.95;28.65;;;;;;;-1.50;100.00;101250.63;5264464;28;20032;-71
2022/01/10 03:47:43;;;;;;;62.10;28.95;;;;;;;-1.46;100.00;101262.78;5265555;28;20024;-71
2022/01/10 03:50:14;;;;;;;56.22;28.90;;;;;;;-1.46;100.00;101261.91;5264687;28;20025;-71
2022/01/10 03:52:45;;;;;;;59.13;28.38;;;;;;;-1.47;100.00;101268.88;5262722;28;20090;-71
2022/01/10 03:55:17;;;;;;;60.25;27.90;;;;;;;-1.49;100.00;101273.28;5262064;28;20028;-71
2022/01/10 03:57:48;;;;;;;57.80;30.05;;;;;;;-1.50;100.00;101273.31;5262763;28;20064;-71
2022/01/10 04:00:20;;;;;;;63.30;29.23;;;;;;;-1.51;100.00;101274.22;5259984;28;20167;-71
2022/01/10 04:03:00;;;;;;;60.40;28.77;;;;;;;-1.45;100.00;101279.34;5261182;28;20570;-71
2022/01/10 04:05:31;;;;;;;62.78;29.48;;;;;;;-1.50;100.00;101287.25;5266053;28;20032;-71
2022/01/10 04:08:03;;;;;;;55.35;28.10;;;;;;;-1.42;100.00;101287.09;5270753;28;20043;-71
2022/01/10 04:10:34;;;;;;;63.90;31.27;;;;;;;-1.33;100.00;101291.31;5261619;28;20048;-72
2022/01/10 04:13:05;;;;;;;62.92;31.75;;;;;;;-1.36;100.00;101294.88;5260684;28;20059;-71
2022/01/10 04:15:37;;;;;;;58.72;29.88;;;;;;;-1.28;100.00;101292.94;5258357;28;20040;-71
2022/01/10 04:18:08;;;;;;;57.15;30.35;;;;;;;-1.24;100.00;101293.75;5264946;28;20040;-71
2022/01/10 04:20:39;;;;;;;62.55;30.48;;;;;;;-1.22;100.00;101298.03;5270519;28;20028;-72
2022/01/10 04:23:12;;;;;;;69.38;32.50;;;;;;;-1.21;100.00;101304.13;5276698;28;20024;-71
2022/01/10 04:25:43;;;;;;;59.97;31.15;;;;;;;-1.14;100.00;101307.50;5264437;28;20034;-71
2022/01/10 04:28:14;;;;;;;63.40;32.05;;;;;;;-1.19;100.00;101318.06;5269035;28;20458;-71
2022/01/10 04:30:46;;;;;;;74.25;32.92;;;;;;;-1.16;100.00;101319.78;5262111;28;20524;-71
2022/01/10 04:33:18;;;;;;;77.00;34.28;;;;;;;-1.14;100.00;101316.22;5271811;28;20024;-72
2022/01/10 04:35:50;;;;;;;76.38;34.50;;;;;;;-1.12;100.00;101321.44;5267374;28;20043;-71
2022/01/10 04:38:21;;;;;;;79.45;36.97;;;;;;;-1.11;100.00;101318.78;5261182;28;20029;-71
2022/01/10 04:40:53;;;;;;;74.88;35.85;;;;;;;-1.13;100.00;101340.63;5257369;28;20503;-71
2022/01/10 04:43:24;;;;;;;79.82;38.25;;;;;;;-1.05;100.00;101352.69;5262192;28;20082;-71
2022/01/10 04:45:56;;;;;;;83.95;35.95;;;;;;;-1.08;100.00;101342.28;5266051;28;20028;-71
2022/01/10 04:48:28;;;;;;;82.28;36.65;;;;;;;-1.07;100.00;101354.50;5264163;28;20442;-72
2022/01/10 04:54:02;;;;;;;83.53;37.30;;;;;;;-1.08;100.00;101368.47;5247561;28;20028;-72
2022/01/10 04:56:34;;;;;;;83.47;37.10;;;;;;;-1.09;100.00;101377.22;5248388;28;20028;-72
2022/01/10 04:59:05;;;;;;;81.18;36.10;;;;;;;-1.07;100.00;101383.28;5246164;28;20093;-72
2022/01/10 05:01:38;;;;;;;83.07;38.15;;;;;;;-1.04;100.00;101387.59;5252110;28;20023;-72
2022/01/10 05:04:10;;;;;;;82.95;37.85;;;;;;;-1.01;100.00;101392.78;5260553;28;20033;-72
2022/01/10 05:06:42;;;;;;;82.47;37.90;;;;;;;-1.03;100.00;101395.44;5258919;28;20028;-72
2022/01/10 05:09:14;;;;;;;91.28;37.65;;;;;;;-0.96;100.00;101400.53;5259422;28;20032;-72
2022/01/10 05:11:46;;;;;;;92.15;39.75;;;;;;;-1.02;100.00;101405.03;5258492;28;20033;-72
2022/01/10 05:14:17;;;;;;;88.10;39.00;;;;;;;-0.91;100.00;101414.41;5255546;28;20037;-72
2022/01/10 05:16:48;;;;;;;97.13;42.15;;;;;;;-0.94;100.00;101417.97;5263670;28;20032;-72
2022/01/10 05:19:20;;;;;;;89.03;39.85;;;;;;;-0.91;100.00;101428.38;5258475;28;20086;-72
2022/01/10 05:21:51;;;;;;;96.20;40.95;;;;;;;-0.92;100.00;101429.28;5263421;28;20117;-72
2022/01/10 05:24:22;;;;;;;85.50;41.22;;;;;;;-0.88;100.00;101423.09;5265023;28;20414;-72
2022/01/10 05:26:54;;;;;;;93.00;39.80;;;;;;;-0.88;100.00;101436.19;5262444;28;20028;-72
2022/01/10 05:29:25;;;;;;;101.47;44.03;;;;;;;-0.89;100.00;101446.69;5261637;28;20029;-72
2022/01/10 05:31:57;;;;;;;95.90;42.15;;;;;;;-0.84;100.00;101434.38;5255142;28;20029;-72
2022/01/10 05:34:30;;;;;;;99.05;43.55;;;;;;;-0.85;100.00;101443.97;5261657;28;20036;-72
2022/01/10 05:37:01;;;;;;;98.80;43.35;;;;;;;-0.82;100.00;101453.53;5255400;28;20540;-72
2022/01/10 05:39:32;;;;;;;99.93;43.75;;;;;;;-0.76;100.00;101448.16;5258482;28;20040;-72
2022/01/10 05:42:04;;;;;;;107.40;44.28;;;;;;;-0.82;100.00;101469.25;5257258;28;20032;-72
2022/01/10 05:44:35;;;;;;;114.15;45.47;;;;;;;-0.81;100.00;101474.44;5255010;28;21226;-72
2022/01/10 05:47:06;;;;;;;97.53;43.15;;;;;;;-0.74;100.00;101474.34;5257401;28;20298;-72
2022/01/10 05:49:45;;;;;;;93.97;43.42;;;;;;;-0.72;100.00;101470.78;5260746;28;20133;-72
2022/01/10 05:52:16;;;;;;;97.45;43.42;;;;;;;-0.73;100.00;101476.94;5255641;28;20032;-72
2022/01/10 05:54:48;;;;;;;101.60;43.83;;;;;;;-0.71;100.00;101477.78;5257194;28;20078;-72
2022/01/10 05:57:19;;;;;;;108.05;45.72;;;;;;;-0.65;100.00;101482.03;5260983;28;20044;-72
2022/01/10 05:59:50;;;;;;;105.28;45.38;;;;;;;-0.69;100.00;101489.09;5260941;28;20674;-73
2022/01/10 06:02:22;;;;;;;96.88;43.72;;;;;;;-0.56;100.00;101486.22;5260834;28;20033;-73
2022/01/10 06:04:54;;;;;;;105.40;45.08;;;;;;;-0.62;100.00;101492.44;5267235;28;20059;-72
2022/01/10 06:07:25;;;;;;;97.97;44.65;;;;;;;-0.60;100.00;101493.28;5264687;28;20537;-72
2022/01/10 06:09:57;;;;;;;105.28;45.13;;;;;;;-0.54;100.00;101503.63;5258496;28;20492;-72
2022/01/10 06:12:28;;;;;;;105.78;45.38;;;;;;;-0.53;100.00;101513.22;5260430;28;20059;-72
2022/01/10 06:14:59;;;;;;;103.65;44.60;;;;;;;-0.51;100.00;101518.44;5259871;28;20032;-72
2022/01/10 06:17:31;;;;;;;101.57;45.53;;;;;;;-0.49;100.00;101516.66;5274749;28;20033;-72
2022/01/10 06:20:03;;;;;;;101.72;45.25;;;;;;;-0.48;100.00;101521.88;5271295;28;20036;-72
2022/01/10 06:22:34;;;;;;;106.35;45.85;;;;;;;-0.54;100.00;101526.34;5265888;28;20147;-72
2022/01/10 06:25:07;;;;;;;102.88;45.17;;;;;;;-0.50;100.00;101533.25;5267876;28;20064;-72
2022/01/10 06:27:39;;;;;;;94.43;43.72;;;;;;;-0.46;100.00;101535.81;5268257;28;20032;-72
2022/01/10 06:30:11;;;;;;;90.43;41.30;;;;;;;-0.41;100.00;101536.56;5267197;28;20543;-72
2022/01/10 06:32:42;;;;;;;102.85;44.75;;;;;;;-0.38;100.00;101543.53;5260473;28;20026;-72
2022/01/10 06:35:13;;;;;;;95.25;45.45;;;;;;;-0.35;100.00;101558.31;5258648;28;20115;-72
2022/01/10 06:37:45;;;;;;;99.95;45.15;;;;;;;-0.33;100.00;101567.88;5263199;28;20110;-72
2022/01/10 06:40:17;;;;;;;103.00;44.40;;;;;;;-0.28;100.00;101571.28;5264041;28;20025;-72
2022/01/10 06:42:48;;;;;;;111.53;47.15;;;;;;;-0.30;100.00;101575.69;5262822;28;20139;-72
2022/01/10 06:45:20;;;;;;;103.85;44.67;;;;;;;-0.22;100.00;101565.91;5261725;28;20135;-72
2022/01/10 06:47:51;;;;;;;103.70;45.45;;;;;;;-0.23;100.00;101573.81;5261201;28;20029;-72
2022/01/10 06:50:22;;;;;;;88.32;42.60;;;;;;;-0.13;100.00;101579.75;5262830;28;20040;-72
2022/01/10 06:52:55;;;;;;;88.10;43.35;;;;;;;-0.14;100.00;101573.63;5260888;28;20107;-72
2022/01/10 06:55:26;;;;;;;98.95;44.08;;;;;;;-0.10;100.00;101577.03;5262726;28;20082;-72
2022/01/10 06:57:58;;;;;;;94.25;45.08;;;;;;;-0.16;100.00;101596.38;5257683;28;21547;-72
2022/01/10 07:00:29;;;;;;;94.82;46.58;;;;;;;-0.15;100.00;101594.63;5262274;28;20032;-72
2022/01/10 07:03:00;;;;;;;92.80;42.83;;;;;;;-0.12;100.00;101599.81;5257566;28;20059;-72
2022/01/10 07:05:32;;;;;;;90.75;42.50;;;;;;;-0.13;100.00;101611.22;5243801;28;20035;-72
2022/01/10 07:08:04;;;;;;;83.60;40.88;;;;;;;-0.08;100.00;101618.06;5262071;28;20059;-72
2022/01/10 07:10:35;;;;;;;82.38;41.15;;;;;;;-0.07;100.00;101619.81;5266863;28;20081;-72
2022/01/10 07:13:06;;;;;;;91.15;42.60;;;;;;;-0.11;100.00;101627.78;5255560;28;20052;-72
2022/01/10 07:15:38;;;;;;;84.50;40.92;;;;;;;-0.09;100.00;101631.25;5261263;28;20083;-72
2022/01/10 07:18:09;;;;;;;90.43;41.90;;;;;;;-0.03;100.00;101633.75;5263140;28;20497;-72
2022/01/10 07:20:40;;;;;;;93.05;43.80;;;;;;;-0.08;100.00;101638.22;5259820;28;20056;-72
2022/01/10 07:23:11;;;;;;;86.30;42.55;;;;;;;-0.06;100.00;101641.66;5259913;28;20033;-72
2022/01/10 07:25:43;;;;;;;84.30;41.47;;;;;;;-0.05;100.00;101653.91;5263056;28;20036;-72
2022/01/10 07:28:14;;;;;;;84.50;42.53;;;;;;;-0.02;100.00;101656.44;5270733;28;20028;-72
2022/01/10 07:30:46;;;;;;;98.93;45.85;;;;;;;-0.06;100.00;101660.91;5257865;28;20034;-72
2022/01/10 07:33:17;;;;;;;85.68;44.75;;;;;;;-0.10;100.00;101664.47;5259834;28;20028;-72
2022/01/10 07:35:49;;;;;;;84.95;40.75;;;;;;;-0.13;100.00;101669.78;5262978;28;20071;-72
2022/01/10 07:38:20;;;;;;;80.25;40.58;;;;;;;-0.17;100.00;101689.09;5259822;28;20075;-72
2022/01/10 07:40:51;;;;;;;78.50;39.80;;;;;;;-0.18;100.00;101686.50;5261706;28;20204;-72
2022/01/10 07:43:23;;;;;;;82.25;39.40;;;;;;;-0.22;100.00;101690.94;5267409;28;20038;-72
2022/01/10 07:45:54;;;;;;;90.90;41.83;;;;;;;-0.26;100.00;101705.00;5266426;28;20032;-72
2022/01/10 07:48:28;;;;;;;86.28;40.42;;;;;;;-0.33;100.00;101709.47;5260834;28;20036;-72
2022/01/10 07:50:59;;;;;;;91.55;42.05;;;;;;;-0.40;100.00;101720.97;5258260;28;20032;-72
2022/01/10 07:53:31;;;;;;;80.45;38.42;;;;;;;-0.34;100.00;101720.00;5262790;28;20090;-72
2022/01/10 07:56:03;;;;;;;94.35;40.00;;;;;;;-0.46;100.00;101719.31;5260128;28;20405;-72
2022/01/10 07:58:35;;;;;;;85.10;39.10;;;;;;;-0.45;100.00;101730.66;5263703;28;20128;-72
2022/01/10 08:01:06;;;;;;;82.15;38.50;;;;;;;-0.38;100.00;101731.41;5257999;28;20032;-72
2022/01/10 08:03:37;;;;;;;95.63;42.15;;;;;;;-0.47;100.00;101745.53;5260004;28;20024;-72
2022/01/10 08:06:09;;;;;;;89.55;39.20;;;;;;;-0.47;100.00;101743.78;5264014;28;20029;-72
2022/01/10 08:08:40;;;;;;;82.30;39.13;;;;;;;-0.46;100.00;101756.00;5259411;28;20063;-72
2022/01/10 08:11:11;;;;;;;91.18;39.20;;;;;;;-0.40;100.00;101762.91;5261441;28;20494;-72
2022/01/10 08:13:43;;;;;;;80.47;38.95;;;;;;;-0.40;100.00;101769.00;5264700;28;20048;-73
2022/01/10 08:16:14;;;;;;;87.30;39.75;;;;;;;-0.42;100.00;101773.41;5261153;28;20047;-72
2022/01/10 08:18:45;;;;;;;83.13;38.03;;;;;;;-0.41;100.00;101769.03;5263926;28;20498;-72
2022/01/10 08:21:17;;;;;;;81.65;37.65;;;;;;;-0.38;100.00;101776.88;5259449;28;20480;-72
2022/01/10 08:23:48;;;;;;;87.60;38.45;;;;;;;-0.32;100.00;101789.88;5260118;28;20033;-73
2022/01/10 08:26:20;;;;;;;87.50;38.08;;;;;;;-0.33;100.00;101789.88;5260925;28;20025;-72
2022/01/10 08:28:52;;;;;;;91.65;39.92;;;;;;;-0.33;100.00;101793.38;5260242;28;20434;-72
2022/01/10 08:31:23;;;;;;;83.57;37.53;;;;;;;-0.28;100.00;101795.94;5261779;28;20032;-72
2022/01/10 08:33:54;;;;;;;87.43;38.13;;;;;;;-0.34;100.00;101796.03;5257417;28;20036;-72
2022/01/10 08:36:27;;;;;;;81.15;35.72;;;;;;;-0.24;100.00;101810.72;5266788;28;20028;-72
2022/01/10 08:38:59;;;;;;;82.50;37.90;;;;;;;-0.22;100.00;101816.81;5270878;28;20089;-73
2022/01/10 08:41:31;;;;;;;85.25;37.35;;;;;;;-0.15;100.00;101810.59;5266339;28;20028;-73
2022/01/10 08:44:06;;;;;;;91.18;39.67;;;;;;;-0.12;100.00;101828.88;5265331;28;20017;-72
2022/01/10 08:46:37;;;;;;;80.22;38.08;;;;;;;-0.07;100.00;101839.31;5269325;28;20273;-72
2022/01/10 08:49:09;;;;;;;93.20;39.10;;;;;;;-0.03;100.00;101841.84;5269760;28;20029;-72
2022/01/10 08:51:41;;;;;;;84.93;37.90;;;;;;;0.06;100.00;101845.19;5265597;28;20583;-72
2022/01/10 08:54:12;;;;;;;86.00;39.25;;;;;;;0.09;100.00;101861.75;5267733;28;20532;-72
2022/01/10 08:56:44;;;;;;;83.70;37.83;;;;;;;0.18;100.00;101864.25;5268513;28;20074;-72
2022/01/10 08:59:15;;;;;;;97.20;40.53;;;;;;;0.19;100.00;101865.97;5273153;28;20055;-72
2022/01/10 09:01:47;;;;;;;86.82;38.35;;;;;;;0.25;100.00;101864.13;5270908;28;20027;-72
2022/01/10 09:04:18;;;;;;;84.30;38.85;;;;;;;0.29;100.00;101871.94;5271051;28;20604;-72
2022/01/10 09:06:52;;;;;;;87.03;38.75;;;;;;;0.32;100.00;101871.88;5270195;28;20028;-72
2022/01/10 09:09:23;;;;;;;92.30;37.97;;;;;;;0.34;100.00;101880.56;5271645;28;20478;-72
2022/01/10 09:11:55;;;;;;;83.95;35.72;;;;;;;0.44;100.00;101876.06;5272658;28;20029;-72
2022/01/10 09:14:26;;;;;;;82.53;36.63;;;;;;;0.45;100.00;101887.44;5270683;28;20148;-71
2022/01/10 09:16:58;;;;;;;80.82;36.78;;;;;;;0.54;100.00;101890.75;5268718;28;20055;-72
2022/01/10 09:19:29;;;;;;;85.80;35.55;;;;;;;0.61;100.00;101893.25;5267148;28;20035;-72
2022/01/10 09:22:01;;;;;;;85.25;37.92;;;;;;;0.64;100.00;101894.06;5269990;28;20624;-72
2022/01/10 09:24:32;;;;;;;83.43;36.58;;;;;;;0.67;100.00;101895.75;5275761;28;20482;-72
2022/01/10 09:27:04;;;;;;;80.03;36.08;;;;;;;0.67;100.00;101898.38;5265455;28;20093;-72
2022/01/10 09:29:35;;;;;;;77.22;35.85;;;;;;;0.68;100.00;101893.13;5268469;28;20039;-72
2022/01/10 09:32:09;;;;;;;83.15;36.30;;;;;;;0.71;100.00;101906.22;5270505;28;20055;-72
2022/01/10 09:34:41;;;;;;;77.40;35.25;;;;;;;0.75;100.00;101904.41;5274052;28;20504;-72
2022/01/10 09:37:12;;;;;;;78.93;34.92;;;;;;;0.84;100.00;101909.44;5272520;28;20033;-72
2022/01/10 09:39:43;;;;;;;76.78;30.85;;;;;;;0.82;100.00;101913.88;5272427;28;20044;-72
2022/01/10 09:42:15;;;;;;;74.75;31.80;;;;;;;0.80;100.00;101918.28;5268924;28;20048;-72
2022/01/10 09:44:46;;;;;;;71.22;31.77;;;;;;;0.69;100.00;101908.00;5272018;28;20027;-71
2022/01/10 09:47:18;;;;;;;67.32;29.27;;;;;;;0.73;100.00;101924.53;5272339;28;20032;-72
2022/01/10 09:49:49;;;;;;;68.43;29.48;;;;;;;0.78;100.00;101923.56;5273861;28;20521;-71
2022/01/10 09:52:20;;;;;;;63.75;28.60;;;;;;;0.76;100.00;101924.50;5274281;28;20032;-72
2022/01/10 09:54:53;;;;;;;69.00;28.77;;;;;;;0.87;100.00;101927.78;5271808;28;20028;-72
2022/01/10 09:57:24;;;;;;;65.70;28.40;;;;;;;0.86;100.00;101939.19;5273340;28;20110;-72
2022/01/10 09:59:56;;;;;;;69.53;28.50;;;;;;;1.00;100.00;101938.06;5271064;28;20036;-72
2022/01/10 10:02:32;;;;;;;61.25;26.42;;;;;;;0.90;100.00;101937.38;5272594;28;20032;-72
2022/01/10 10:05:05;;;;;;;57.78;24.45;;;;;;;0.89;100.00;101957.53;5269698;28;20035;-72
2022/01/10 10:07:38;;;;;;;57.03;24.90;;;;;;;0.91;100.00;101953.09;5269758;28;20490;-72
2022/01/10 10:10:13;;;;;;;55.45;24.63;;;;;;;0.92;100.00;101961.84;5270119;28;20040;-72
2022/01/10 10:12:48;;;;;;;58.45;24.17;;;;;;;0.90;100.00;101969.78;5268691;28;20036;-72
2022/01/10 10:15:26;;;;;;;56.45;24.85;;;;;;;0.95;100.00;101981.06;5266877;28;21615;-71
2022/01/10 10:17:57;;;;;;;58.53;24.90;;;;;;;1.01;100.00;101981.84;5273905;28;20041;-72
2022/01/10 10:20:29;;;;;;;57.80;24.65;;;;;;;1.05;100.00;101994.91;5273398;28;20536;-72
2022/01/10 10:23:03;;;;;;;59.33;25.08;;;;;;;1.16;100.00;101995.56;5271129;28;20146;-72
2022/01/10 10:25:34;;;;;;;;;;;;;;;1.27;100.00;102013.78;5276730;28;20107;-72
2022/01/10 10:28:06;;;;;;;62.85;24.75;;;;;;;1.30;100.00;102021.59;5275868;28;20826;-72
2022/01/10 10:30:38;;;;;;;63.28;26.95;;;;;;;1.40;100.00;102013.53;5271012;28;20038;-72
2022/01/10 10:33:12;;;;;;;62.63;27.00;;;;;;;1.50;100.00;102018.59;5274964;28;20115;-72
2022/01/10 10:35:45;;;;;;;62.13;26.27;;;;;;;1.56;100.00;102018.47;5274277;28;20141;-73
2022/01/10 10:38:16;;;;;;;57.63;25.48;;;;;;;1.47;100.00;102016.00;5272573;28;20021;-72
2022/01/10 10:40:47;;;;;;;57.60;24.10;;;;;;;1.58;100.00;102026.34;5271260;28;20039;-72
2022/01/10 10:43:18;;;;;;;56.92;25.42;;;;;;;1.60;100.00;102019.28;5268370;28;20020;-72
2022/01/10 10:45:50;;;;;;;58.45;24.88;;;;;;;1.66;100.00;102031.44;5267245;28;20016;-72
2022/01/10 10:48:21;;;;;;;54.78;24.33;;;;;;;1.71;100.00;102025.19;5269071;28;20035;-72
2022/01/10 10:50:54;;;;;;;55.35;25.25;;;;;;;1.73;100.00;102023.38;5270308;28;20078;-72
2022/01/10 10:53:27;;;;;;;54.40;24.48;;;;;;;1.70;100.00;102036.59;5274022;28;20024;-72
2022/01/10 10:56:03;;;;;;;55.95;23.88;;;;;;;1.75;100.00;102021.59;5270867;28;20473;-72
2022/01/10 10:58:35;;;;;;;52.85;23.75;;;;;;;1.71;100.00;102026.97;5268626;28;20400;-72
2022/01/10 11:01:07;;;;;;;49.67;23.35;;;;;;;1.67;100.00;102035.78;5269137;28;20035;-72
2022/01/10 11:03:40;;;;;;;46.95;22.48;;;;;;;1.67;100.00;102034.03;5262729;28;20750;-72
2022/01/10 11:06:11;;;;;;;47.75;22.02;;;;;;;1.66;100.00;102040.19;5263805;28;20490;-72
2022/01/10 11:08:44;;;;;;;56.13;22.40;;;;;;;1.59;100.00;102043.81;5262893;28;20036;-72
2022/01/10 11:11:21;;;;;;;50.53;23.80;;;;;;;1.63;100.00;102052.53;5266333;28;20059;-72
2022/01/10 11:13:56;;;;;;;47.03;22.35;;;;;;;1.56;100.00;102047.41;5267465;28;20113;-72
2022/01/10 11:16:28;;;;;;;54.65;23.13;;;;;;;1.55;100.00;102060.56;5266309;28;20161;-72
2022/01/10 11:19:00;;;;;;;44.67;20.95;;;;;;;1.54;100.00;102062.34;5268814;28;20497;-72
2022/01/10 11:21:33;;;;;;;50.78;21.88;;;;;;;1.53;100.00;102067.63;5265454;28;20029;-72
2022/01/10 11:24:04;;;;;;;49.33;22.10;;;;;;;1.52;100.00;102074.66;5267078;28;20505;-72
2022/01/10 11:26:38;;;;;;;46.95;21.30;;;;;;;1.54;100.00;102070.22;5273601;28;20111;-72
2022/01/10 11:29:09;;;;;;;48.05;21.45;;;;;;;1.53;100.00;102078.16;5270957;28;20028;-72
2022/01/10 11:31:41;;;;;;;47.85;20.35;;;;;;;1.55;100.00;102074.63;5268948;28;20017;-70
2022/01/10 11:34:12;;;;;;;50.63;20.75;;;;;;;1.58;100.00;102083.34;5267309;28;20028;-72